Time;durP1;ratioP1;P1;durP2;ratioP2;P2;SDS_P1;SDS_P2;PMS_P1;PMS_P2;Temp;Humidity;BMP_temperature;BMP_pressure;BME280_temperature;BME280_humidity;BME280_pressure;Samples;Min_cycle;Max_cycle;Signal;HPM_P1;HPM_P2
2021/11/05 00:01:09;;;;;;;21.27;16.50;;;;;;;12.72;79.13;94576.52;825373;71;29702;-78
2021/11/05 00:16:13;;;;;;;21.05;14.90;;;;;;;12.70;79.72;94581.30;824148;71;32090;-78
2021/11/05 00:31:09;;;;;;;19.52;13.80;;;;;;;12.70;80.50;94571.31;827382;71;30229;-78
2021/11/05 00:46:14;;;;;;;20.65;14.33;;;;;;;12.71;80.92;94553.91;825940;71;32605;-78
2021/11/05 01:01:11;;;;;;;19.57;13.90;;;;;;;12.61;81.08;94561.50;826904;71;30309;-79
2021/11/05 01:16:09;;;;;;;21.62;15.05;;;;;;;12.30;81.48;94523.78;827325;71;29696;-76
2021/11/05 01:31:17;;;;;;;18.67;14.25;;;;;;;12.39;82.12;94535.16;827120;71;32700;-79
2021/11/05 01:46:08;;;;;;;18.00;12.88;;;;;;;12.35;82.05;94525.00;825980;71;29703;-77
2021/11/05 02:01:08;;;;;;;17.12;12.60;;;;;;;12.13;81.90;94518.61;819340;71;29733;-78
2021/11/05 02:16:10;;;;;;;18.92;12.43;;;;;;;12.16;82.19;94535.65;821855;71;29659;-76
2021/11/05 02:31:09;;;;;;;15.38;10.40;;;;;;;11.97;82.20;94523.41;827287;71;29664;-79
2021/11/05 02:46:14;;;;;;;14.10;11.40;;;;;;;11.92;82.62;94511.70;831362;71;33189;-78
2021/11/05 03:16:15;;;;;;;17.82;12.30;;;;;;;11.81;83.01;94528.72;827357;71;33214;-80
2021/11/05 03:31:13;;;;;;;16.75;11.63;;;;;;;11.76;82.79;94511.20;816557;71;32125;-76
2021/11/05 03:46:09;;;;;;;17.92;11.50;;;;;;;11.66;82.95;94530.33;827617;71;30836;-78
2021/11/05 04:01:13;;;;;;;16.67;11.80;;;;;;;11.66;83.04;94532.95;821486;71;32086;-78
2021/11/05 04:16:08;;;;;;;15.95;11.33;;;;;;;11.64;83.92;94500.42;821445;71;30291;-78
2021/11/05 04:31:09;;;;;;;17.05;11.40;;;;;;;11.62;84.08;94513.84;828464;71;29905;-79
2021/11/05 04:46:09;;;;;;;16.40;11.57;;;;;;;11.57;84.11;94519.73;827665;71;30325;-76
2021/11/05 05:01:08;;;;;;;17.92;12.93;;;;;;;11.57;84.23;94540.20;827738;71;29763;-78
2021/11/05 05:16:17;;;;;;;18.98;14.43;;;;;;;11.66;84.22;94567.13;832280;71;32895;-76
2021/11/05 05:31:09;;;;;;;22.52;13.30;;;;;;;11.82;83.98;94580.24;833462;71;29759;-79
2021/11/05 05:46:08;;;;;;;18.87;14.10;;;;;;;12.00;83.59;94584.64;827755;71;29763;-77
2021/11/05 06:01:12;;;;;;;20.97;14.87;;;;;;;12.09;83.22;94586.58;827666;71;32485;-77
2021/11/05 09:16:09;;;;;;;13.17;11.30;;;;;;;24.74;45.79;94592.45;822726;71;29828;-75
2021/11/05 09:31:30;;;;;;;14.37;11.40;;;;;;;;;;813961;71;33338;-77
2021/11/05 09:46:13;;;;;;;15.67;12.67;;;;;;;25.38;43.15;94577.19;828288;71;32087;-75
2021/11/05 10:01:11;;;;;;;18.47;14.10;;;;;;;25.66;42.54;94564.93;827941;71;30272;-74
2021/11/05 10:16:15;;;;;;;15.00;13.10;;;;;;;;;;827285;71;32732;-78
2021/11/05 10:31:11;;;;;;;17.10;13.43;;;;;;;;;;833865;71;32537;-79
2021/11/05 10:46:26;;;;;;;13.93;12.43;;;;;;;26.05;42.97;94506.36;833763;71;29664;-79
2021/11/05 11:01:17;;;;;;;12.60;11.30;;;;;;;26.16;42.46;94493.67;833526;71;32806;-77
2021/11/05 11:16:11;;;;;;;15.73;11.93;;;;;;;26.08;41.43;94012.25;827562;71;30185;-76
2021/11/05 11:31:12;;;;;;;13.47;9.57;;;;;;;25.98;39.85;94483.53;827981;71;30286;-78
2021/11/05 11:46:19;;;;;;;11.87;6.63;;;;;;;26.62;35.73;94465.09;833069;71;33236;-76
2021/11/05 12:01:25;;;;;;;9.97;5.47;;;;;;;26.94;34.63;94451.47;833238;71;30157;-75
2021/11/05 12:16:30;;;;;;;15.67;5.47;;;;;;;26.37;30.38;94465.94;833378;71;32997;-77
2021/11/05 12:31:22;;;;;;;14.23;5.73;;;;;;;;;;826729;71;32718;-76
2021/11/05 12:46:16;;;;;;;14.80;5.33;;;;;;;;;;827678;71;32414;-78
2021/11/05 13:01:09;;;;;;;19.03;5.70;;;;;;;;;;827952;71;29708;-76
2021/11/05 13:16:15;;;;;;;23.13;6.77;;;;;;;;;;825710;70;32784;-78
2021/11/05 15:16:16;;;;;;;14.47;6.00;;;;;;;22.63;35.40;94499.50;827425;71;33420;-77
2021/11/05 15:31:08;;;;;;;20.73;6.00;;;;;;;22.38;35.75;94518.68;828765;71;29836;-79
2021/11/05 15:46:11;;;;;;;21.83;5.47;;;;;;;22.60;34.40;94522.40;818773;71;30503;-81
2021/11/05 16:01:15;;;;;;;16.77;5.90;;;;;;;22.46;35.32;94557.75;826838;71;32786;-81
2021/11/05 16:16:10;;;;;;;16.73;6.30;;;;;;;22.34;35.21;94585.50;827472;71;30800;-81
2021/11/05 16:31:09;;;;;;;19.90;11.20;;;;;;;22.02;38.27;94615.73;827644;71;29791;-80
2021/11/05 16:46:08;;;;;;;24.20;11.80;;;;;;;21.40;41.72;94642.47;815096;71;29760;-81
2021/11/05 17:02:09;;;;;;;;;;;;;;;;;;;;;
2021/11/05 17:16:26;;;;;;;21.17;13.70;;;;;;;20.32;48.62;94688.19;829505;71;32748;-80
2021/11/05 17:31:10;;;;;;;15.55;9.88;;;;;;;19.81;51.36;94706.16;827958;71;29715;-80
2021/11/05 17:46:16;;;;;;;19.48;12.05;;;;;;;19.45;52.80;94705.73;833516;71;32783;-79
2021/11/05 18:01:09;;;;;;;17.57;10.38;;;;;;;19.15;53.71;94726.55;828041;71;29733;-79
2021/11/05 18:16:16;;;;;;;18.05;10.25;;;;;;;18.93;54.42;94739.77;826702;71;32791;-78
2021/11/05 18:31:14;;;;;;;20.35;12.45;;;;;;;18.76;55.34;94764.69;826846;71;33212;-78
2021/11/05 19:01:31;;;;;;;17.77;9.63;;;;;;;18.38;55.56;94785.70;825977;71;32867;-81
2021/11/05 19:31:10;;;;;;;13.25;8.60;;;;;;;18.02;56.12;94792.46;821154;71;29790;-80
2021/11/05 19:46:14;;;;;;;16.20;8.88;;;;;;;17.92;55.97;94800.28;833322;71;32739;-81
2021/11/05 20:01:09;;;;;;;23.47;11.55;;;;;;;17.76;57.35;94801.95;833252;71;30286;-83
2021/11/05 20:16:14;;;;;;;20.95;12.00;;;;;;;17.61;58.04;94829.31;827123;71;32111;-80
2021/11/05 20:31:15;;;;;;;23.60;15.30;;;;;;;17.16;59.95;94836.55;826699;71;31824;-82
2021/11/05 20:46:11;;;;;;;17.55;11.55;;;;;;;17.05;59.99;94839.88;833461;71;29247;-82
2021/11/05 21:16:14;;;;;;;17.20;10.30;;;;;;;16.66;61.02;94848.37;827159;71;31772;-80
2021/11/05 21:31:23;;;;;;;16.90;10.40;;;;;;;16.51;61.57;94861.59;833776;71;31751;-83
2021/11/05 21:46:32;;;;;;;23.32;14.25;;;;;;;16.38;61.73;94871.25;834143;71;31817;-81
2021/11/05 22:01:44;;;;;;;19.92;11.95;;;;;;;16.22;62.07;94874.41;833871;71;32643;-80
2021/11/05 22:16:38;;;;;;;19.50;11.03;;;;;;;16.04;62.35;94878.17;835741;70;32576;-82
2021/11/05 22:31:37;;;;;;;20.37;10.58;;;;;;;15.91;62.73;94887.03;826264;71;31911;-82
2021/11/05 22:46:28;;;;;;;20.02;12.05;;;;;;;15.69;63.44;94889.25;827084;71;31766;-83
2021/11/05 23:01:49;;;;;;;22.40;10.35;;;;;;;15.38;63.82;94879.56;833090;71;31866;-82
2021/11/05 23:16:36;;;;;;;21.45;10.05;;;;;;;15.41;64.42;94913.33;826708;71;32713;-81
2021/11/05 23:31:24;;;;;;;20.85;9.60;;;;;;;15.25;64.39;94904.23;833609;71;31870;-83
2021/11/05 23:46:44;;;;;;;20.75;11.40;;;;;;;15.19;65.15;94913.64;833177;71;31956;-83
